sensor_id;sensor_type;location;lat;lon;timestamp;P1;P4;P2;P0;N10;N4;N25;N1;N05;TS
63316;SPS30;49822;41.468;13.560;2023-05-27T00:02:13;8.13;;3.42;;;;;;;
63316;SPS30;49822;41.468;13.560;2023-05-27T00:04:39;6.55;;3.50;;;;;;;
63316;SPS30;49822;41.468;13.560;2023-05-27T00:07:05;10.20;;4.00;;;;;;;
63316;SPS30;49822;41.468;13.560;2023-05-27T00:09:31;7.78;;3.60;;;;;;;
63316;SPS30;49822;41.468;13.560;2023-05-27T00:11:57;11.25;;4.22;;;;;;;
63316;SPS30;49822;41.468;13.560;2023-05-27T00:14:23;11.45;;4.45;;;;;;;
63316;SPS30;49822;41.468;13.560;2023-05-27T00:16:49;13.20;;4.38;;;;;;;
63316;SPS30;49822;41.468;13.560;2023-05-27T00:19:16;13.80;;7.60;;;;;;;
63316;SPS30;49822;41.468;13.560;2023-05-27T00:21:42;14.25;;8.48;;;;;;;
63316;SPS30;49822;41.468;13.560;2023-05-27T00:24:09;13.15;;6.93;;;;;;;
63316;SPS30;49822;41.468;13.560;2023-05-27T00:26:36;9.13;;3.55;;;;;;;
63316;SPS30;49822;41.468;13.560;2023-05-27T00:29:04;5.70;;3.38;;;;;;;
63316;SPS30;49822;41.468;13.560;2023-05-27T00:31:30;7.78;;3.88;;;;;;;
63316;SPS30;49822;41.468;13.560;2023-05-27T00:33:56;7.70;;3.85;;;;;;;
63316;SPS30;49822;41.468;13.560;2023-05-27T00:36:22;7.15;;4.05;;;;;;;
63316;SPS30;49822;41.468;13.560;2023-05-27T00:38:48;7.40;;3.63;;;;;;;
63316;SPS30;49822;41.468;13.560;2023-05-27T00:41:14;9.02;;4.40;;;;;;;
63316;SPS30;49822;41.468;13.560;2023-05-27T00:43:40;9.98;;4.75;;;;;;;
63316;SPS30;49822;41.468;13.560;2023-05-27T00:46:06;6.50;;3.80;;;;;;;
63316;SPS30;49822;41.468;13.560;2023-05-27T00:48:33;6.88;;3.53;;;;;;;
63316;SPS30;49822;41.468;13.560;2023-05-27T00:50:59;7.10;;3.58;;;;;;;
63316;SPS30;49822;41.468;13.560;2023-05-27T00:53:26;5.18;;3.42;;;;;;;
63316;SPS30;49822;41.468;13.560;2023-05-27T00:55:52;7.22;;3.50;;;;;;;
63316;SPS30;49822;41.468;13.560;2023-05-27T00:58:19;7.10;;3.78;;;;;;;
63316;SPS30;49822;41.468;13.560;2023-05-27T01:00:50;9.77;;4.10;;;;;;;
63316;SPS30;49822;41.468;13.560;2023-05-27T01:03:44;13.70;;5.75;;;;;;;
63316;SPS30;49822;41.468;13.560;2023-05-27T01:06:25;7.25;;3.75;;;;;;;
63316;SPS30;49822;41.468;13.560;2023-05-27T01:14:27;9.57;;4.43;;;;;;;
63316;SPS30;49822;41.468;13.560;2023-05-27T01:16:56;5.95;;3.40;;;;;;;
63316;SPS30;49822;41.468;13.560;2023-05-27T01:19:30;6.97;;4.10;;;;;;;
63316;SPS30;49822;41.468;13.560;2023-05-27T01:22:00;5.93;;3.55;;;;;;;
63316;SPS30;49822;41.468;13.560;2023-05-27T01:24:27;11.35;;3.80;;;;;;;
63316;SPS30;49822;41.468;13.560;2023-05-27T01:26:54;5.95;;3.70;;;;;;;
63316;SPS30;49822;41.468;13.560;2023-05-27T01:29:26;8.40;;3.80;;;;;;;
63316;SPS30;49822;41.468;13.560;2023-05-27T01:34:52;13.18;;4.05;;;;;;;
63316;SPS30;49822;41.468;13.560;2023-05-27T01:37:24;9.90;;4.00;;;;;;;
63316;SPS30;49822;41.468;13.560;2023-05-27T01:39:54;10.30;;4.50;;;;;;;
63316;SPS30;49822;41.468;13.560;2023-05-27T01:42:21;5.82;;3.58;;;;;;;
63316;SPS30;49822;41.468;13.560;2023-05-27T01:44:48;6.55;;3.75;;;;;;;
63316;SPS30;49822;41.468;13.560;2023-05-27T01:47:15;9.15;;3.67;;;;;;;
63316;SPS30;49822;41.468;13.560;2023-05-27T01:49:40;9.13;;4.45;;;;;;;
63316;SPS30;49822;41.468;13.560;2023-05-27T01:52:07;10.27;;3.97;;;;;;;
63316;SPS30;49822;41.468;13.560;2023-05-27T01:54:34;8.38;;3.60;;;;;;;
63316;SPS30;49822;41.468;13.560;2023-05-27T01:57:00;5.95;;3.58;;;;;;;
63316;SPS30;49822;41.468;13.560;2023-05-27T01:59:27;9.27;;4.10;;;;;;;
63316;SPS30;49822;41.468;13.560;2023-05-27T02:01:53;5.45;;4.07;;;;;;;
63316;SPS30;49822;41.468;13.560;2023-05-27T02:04:19;6.35;;3.45;;;;;;;
63316;SPS30;49822;41.468;13.560;2023-05-27T02:06:45;5.93;;3.58;;;;;;;
63316;SPS30;49822;41.468;13.560;2023-05-27T02:09:11;5.30;;3.55;;;;;;;
63316;SPS30;49822;41.468;13.560;2023-05-27T02:11:39;5.80;;3.70;;;;;;;
63316;SPS30;49822;41.468;13.560;2023-05-27T02:14:05;6.88;;4.05;;;;;;;
63316;SPS30;49822;41.468;13.560;2023-05-27T02:16:32;7.28;;3.60;;;;;;;
63316;SPS30;49822;41.468;13.560;2023-05-27T02:19:02;6.80;;3.90;;;;;;;
63316;SPS30;49822;41.468;13.560;2023-05-27T02:21:30;9.17;;3.60;;;;;;;
63316;SPS30;49822;41.468;13.560;2023-05-27T02:23:56;7.22;;3.65;;;;;;;
63316;SPS30;49822;41.468;13.560;2023-05-27T02:26:22;8.05;;4.13;;;;;;;
63316;SPS30;49822;41.468;13.560;2023-05-27T02:28:48;7.03;;3.90;;;;;;;
63316;SPS30;49822;41.468;13.560;2023-05-27T02:31:15;7.75;;3.72;;;;;;;
63316;SPS30;49822;41.468;13.560;2023-05-27T02:33:41;8.07;;3.70;;;;;;;
63316;SPS30;49822;41.468;13.560;2023-05-27T02:36:07;7.22;;4.00;;;;;;;
63316;SPS30;49822;41.468;13.560;2023-05-27T02:38:33;7.10;;3.63;;;;;;;
63316;SPS30;49822;41.468;13.560;2023-05-27T02:41:00;9.38;;4.40;;;;;;;
63316;SPS30;49822;41.468;13.560;2023-05-27T02:43:26;7.93;;4.80;;;;;;;
63316;SPS30;49822;41.468;13.560;2023-05-27T02:45:53;8.05;;4.80;;;;;;;
63316;SPS30;49822;41.468;13.560;2023-05-27T02:48:19;5.38;;3.38;;;;;;;
63316;SPS30;49822;41.468;13.560;2023-05-27T02:50:45;8.68;;4.65;;;;;;;
63316;SPS30;49822;41.468;13.560;2023-05-27T02:53:12;7.68;;4.45;;;;;;;
63316;SPS30;49822;41.468;13.560;2023-05-27T02:55:38;8.27;;4.35;;;;;;;
63316;SPS30;49822;41.468;13.560;2023-05-27T02:58:04;7.97;;4.88;;;;;;;
63316;SPS30;49822;41.468;13.560;2023-05-27T03:00:32;9.82;;4.78;;;;;;;
63316;SPS30;49822;41.468;13.560;2023-05-27T03:03:00;12.43;;4.68;;;;;;;
63316;SPS30;49822;41.468;13.560;2023-05-27T03:05:29;6.07;;4.13;;;;;;;
63316;SPS30;49822;41.468;13.560;2023-05-27T03:07:55;9.60;;5.82;;;;;;;
63316;SPS30;49822;41.468;13.560;2023-05-27T03:10:23;11.73;;6.10;;;;;;;
63316;SPS30;49822;41.468;13.560;2023-05-27T03:13:01;10.63;;5.70;;;;;;;
63316;SPS30;49822;41.468;13.560;2023-05-27T03:15:27;9.23;;5.70;;;;;;;
63316;SPS30;49822;41.468;13.560;2023-05-27T03:17:58;13.20;;5.95;;;;;;;
63316;SPS30;49822;41.468;13.560;2023-05-27T03:20:25;19.45;;10.32;;;;;;;
63316;SPS30;49822;41.468;13.560;2023-05-27T03:22:52;11.70;;6.50;;;;;;;
63316;SPS30;49822;41.468;13.560;2023-05-27T03:25:18;13.32;;5.72;;;;;;;
63316;SPS30;49822;41.468;13.560;2023-05-27T03:27:44;12.07;;5.85;;;;;;;
63316;SPS30;49822;41.468;13.560;2023-05-27T03:30:13;8.23;;3.92;;;;;;;
63316;SPS30;49822;41.468;13.560;2023-05-27T03:32:45;7.47;;4.25;;;;;;;
63316;SPS30;49822;41.468;13.560;2023-05-27T03:35:12;15.93;;5.05;;;;;;;
63316;SPS30;49822;41.468;13.560;2023-05-27T03:37:38;10.15;;5.03;;;;;;;
63316;SPS30;49822;41.468;13.560;2023-05-27T03:40:07;10.10;;4.18;;;;;;;
63316;SPS30;49822;41.468;13.560;2023-05-27T03:42:34;11.18;;4.25;;;;;;;
63316;SPS30;49822;41.468;13.560;2023-05-27T03:45:00;7.25;;4.28;;;;;;;
63316;SPS30;49822;41.468;13.560;2023-05-27T03:47:28;8.70;;4.50;;;;;;;
63316;SPS30;49822;41.468;13.560;2023-05-27T03:49:54;9.68;;4.40;;;;;;;
63316;SPS30;49822;41.468;13.560;2023-05-27T03:52:20;15.75;;4.97;;;;;;;
63316;SPS30;49822;41.468;13.560;2023-05-27T03:54:46;9.77;;4.60;;;;;;;
63316;SPS30;49822;41.468;13.560;2023-05-27T03:57:12;12.00;;4.40;;;;;;;
63316;SPS30;49822;41.468;13.560;2023-05-27T03:59:38;10.82;;4.60;;;;;;;
63316;SPS30;49822;41.468;13.560;2023-05-27T04:02:04;11.93;;4.72;;;;;;;
63316;SPS30;49822;41.468;13.560;2023-05-27T04:04:31;10.13;;5.55;;;;;;;
63316;SPS30;49822;41.468;13.560;2023-05-27T04:06:57;8.05;;5.05;;;;;;;
63316;SPS30;49822;41.468;13.560;2023-05-27T04:09:23;13.05;;7.93;;;;;;;
63316;SPS30;49822;41.468;13.560;2023-05-27T04:11:49;12.18;;6.50;;;;;;;
63316;SPS30;49822;41.468;13.560;2023-05-27T04:14:15;11.35;;6.28;;;;;;;
63316;SPS30;49822;41.468;13.560;2023-05-27T04:16:41;8.95;;4.22;;;;;;;
63316;SPS30;49822;41.468;13.560;2023-05-27T04:19:08;8.18;;4.50;;;;;;;
63316;SPS30;49822;41.468;13.560;2023-05-27T04:21:34;10.63;;5.35;;;;;;;
63316;SPS30;49822;41.468;13.560;2023-05-27T04:24:02;10.57;;5.22;;;;;;;
63316;SPS30;49822;41.468;13.560;2023-05-27T04:26:29;14.88;;7.00;;;;;;;
63316;SPS30;49822;41.468;13.560;2023-05-27T04:28:56;19.83;;12.57;;;;;;;
63316;SPS30;49822;41.468;13.560;2023-05-27T04:31:26;22.77;;14.82;;;;;;;
63316;SPS30;49822;41.468;13.560;2023-05-27T04:34:08;28.17;;17.30;;;;;;;
63316;SPS30;49822;41.468;13.560;2023-05-27T04:36:35;25.88;;15.88;;;;;;;
63316;SPS30;49822;41.468;13.560;2023-05-27T04:39:05;16.23;;9.13;;;;;;;
63316;SPS30;49822;41.468;13.560;2023-05-27T04:41:34;12.30;;6.68;;;;;;;
63316;SPS30;49822;41.468;13.560;2023-05-27T04:44:22;31.77;;19.67;;;;;;;
63316;SPS30;49822;41.468;13.560;2023-05-27T04:46:49;78.10;;47.97;;;;;;;
63316;SPS30;49822;41.468;13.560;2023-05-27T04:49:16;22.92;;14.02;;;;;;;
63316;SPS30;49822;41.468;13.560;2023-05-27T04:51:42;19.10;;10.90;;;;;;;
63316;SPS30;49822;41.468;13.560;2023-05-27T04:54:12;14.18;;8.07;;;;;;;
63316;SPS30;49822;41.468;13.560;2023-05-27T04:56:38;13.35;;7.15;;;;;;;
63316;SPS30;49822;41.468;13.560;2023-05-27T04:59:08;18.25;;7.88;;;;;;;
63316;SPS30;49822;41.468;13.560;2023-05-27T05:01:42;20.20;;7.80;;;;;;;
63316;SPS30;49822;41.468;13.560;2023-05-27T05:04:30;15.80;;8.32;;;;;;;
63316;SPS30;49822;41.468;13.560;2023-05-27T05:07:00;21.33;;11.53;;;;;;;
63316;SPS30;49822;41.468;13.560;2023-05-27T05:09:27;20.10;;11.05;;;;;;;
63316;SPS30;49822;41.468;13.560;2023-05-27T05:11:57;19.08;;9.50;;;;;;;
63316;SPS30;49822;41.468;13.560;2023-05-27T05:14:23;13.73;;6.85;;;;;;;
63316;SPS30;49822;41.468;13.560;2023-05-27T05:16:50;12.95;;7.25;;;;;;;
63316;SPS30;49822;41.468;13.560;2023-05-27T05:19:17;20.88;;7.85;;;;;;;
63316;SPS30;49822;41.468;13.560;2023-05-27T05:21:43;14.05;;8.27;;;;;;;
63316;SPS30;49822;41.468;13.560;2023-05-27T05:24:11;15.57;;6.40;;;;;;;
63316;SPS30;49822;41.468;13.560;2023-05-27T05:26:40;10.95;;5.90;;;;;;;
63316;SPS30;49822;41.468;13.560;2023-05-27T05:29:06;9.90;;6.15;;;;;;;
63316;SPS30;49822;41.468;13.560;2023-05-27T05:31:32;15.07;;6.32;;;;;;;
63316;SPS30;49822;41.468;13.560;2023-05-27T05:33:59;11.43;;5.88;;;;;;;
63316;SPS30;49822;41.468;13.560;2023-05-27T05:36:26;11.20;;5.30;;;;;;;
63316;SPS30;49822;41.468;13.560;2023-05-27T05:38:57;9.93;;4.78;;;;;;;
63316;SPS30;49822;41.468;13.560;2023-05-27T05:41:23;9.95;;5.13;;;;;;;
63316;SPS30;49822;41.468;13.560;2023-05-27T05:43:49;12.70;;4.90;;;;;;;
63316;SPS30;49822;41.468;13.560;2023-05-27T05:46:15;10.18;;5.57;;;;;;;
63316;SPS30;49822;41.468;13.560;2023-05-27T05:48:42;14.95;;8.75;;;;;;;
63316;SPS30;49822;41.468;13.560;2023-05-27T05:51:12;9.60;;5.80;;;;;;;
63316;SPS30;49822;41.468;13.560;2023-05-27T05:53:41;10.50;;5.90;;;;;;;
63316;SPS30;49822;41.468;13.560;2023-05-27T05:56:07;8.55;;5.22;;;;;;;
63316;SPS30;49822;41.468;13.560;2023-05-27T05:58:33;7.97;;5.10;;;;;;;
63316;SPS30;49822;41.468;13.560;2023-05-27T06:00:59;16.52;;6.88;;;;;;;
63316;SPS30;49822;41.468;13.560;2023-05-27T06:03:37;13.38;;6.80;;;;;;;
63316;SPS30;49822;41.468;13.560;2023-05-27T06:06:06;13.40;;6.25;;;;;;;
63316;SPS30;49822;41.468;13.560;2023-05-27T06:08:39;13.95;;7.00;;;;;;;
63316;SPS30;49822;41.468;13.560;2023-05-27T06:11:11;15.93;;7.15;;;;;;;
63316;SPS30;49822;41.468;13.560;2023-05-27T06:13:41;11.45;;5.55;;;;;;;
63316;SPS30;49822;41.468;13.560;2023-05-27T06:16:11;12.25;;6.53;;;;;;;
63316;SPS30;49822;41.468;13.560;2023-05-27T06:18:37;13.00;;6.97;;;;;;;
63316;SPS30;49822;41.468;13.560;2023-05-27T06:21:03;11.40;;6.68;;;;;;;
63316;SPS30;49822;41.468;13.560;2023-05-27T06:23:45;11.82;;6.25;;;;;;;
63316;SPS30;49822;41.468;13.560;2023-05-27T06:26:15;10.10;;6.43;;;;;;;
63316;SPS30;49822;41.468;13.560;2023-05-27T06:28:48;15.27;;7.50;;;;;;;
63316;SPS30;49822;41.468;13.560;2023-05-27T06:31:15;13.65;;6.30;;;;;;;
63316;SPS30;49822;41.468;13.560;2023-05-27T06:33:41;11.65;;6.63;;;;;;;
63316;SPS30;49822;41.468;13.560;2023-05-27T06:36:08;21.17;;10.68;;;;;;;
63316;SPS30;49822;41.468;13.560;2023-05-27T06:38:34;30.23;;18.75;;;;;;;
63316;SPS30;49822;41.468;13.560;2023-05-27T06:41:01;25.25;;14.25;;;;;;;
63316;SPS30;49822;41.468;13.560;2023-05-27T06:43:28;17.60;;10.38;;;;;;;
63316;SPS30;49822;41.468;13.560;2023-05-27T06:46:02;14.55;;8.70;;;;;;;
63316;SPS30;49822;41.468;13.560;2023-05-27T06:48:57;9.70;;5.30;;;;;;;
63316;SPS30;49822;41.468;13.560;2023-05-27T06:51:23;14.45;;6.22;;;;;;;
63316;SPS30;49822;41.468;13.560;2023-05-27T06:53:51;13.55;;5.20;;;;;;;
63316;SPS30;49822;41.468;13.560;2023-05-27T06:56:23;7.78;;4.68;;;;;;;
63316;SPS30;49822;41.468;13.560;2023-05-27T06:59:08;15.10;;4.65;;;;;;;
63316;SPS30;49822;41.468;13.560;2023-05-27T07:01:35;12.90;;4.78;;;;;;;
63316;SPS30;49822;41.468;13.560;2023-05-27T07:04:03;9.85;;5.20;;;;;;;
63316;SPS30;49822;41.468;13.560;2023-05-27T07:06:47;7.13;;4.18;;;;;;;
63316;SPS30;49822;41.468;13.560;2023-05-27T07:09:13;7.28;;4.15;;;;;;;
63316;SPS30;49822;41.468;13.560;2023-05-27T07:11:40;9.48;;4.55;;;;;;;
63316;SPS30;49822;41.468;13.560;2023-05-27T07:14:10;12.32;;4.78;;;;;;;
63316;SPS30;49822;41.468;13.560;2023-05-27T07:16:39;8.25;;4.50;;;;;;;
63316;SPS30;49822;41.468;13.560;2023-05-27T07:19:07;8.10;;4.40;;;;;;;
63316;SPS30;49822;41.468;13.560;2023-05-27T07:21:42;11.10;;3.92;;;;;;;
63316;SPS30;49822;41.468;13.560;2023-05-27T07:24:15;9.27;;4.97;;;;;;;
63316;SPS30;49822;41.468;13.560;2023-05-27T07:26:43;7.53;;4.00;;;;;;;
63316;SPS30;49822;41.468;13.560;2023-05-27T07:29:09;8.05;;4.43;;;;;;;
63316;SPS30;49822;41.468;13.560;2023-05-27T07:31:50;9.07;;4.80;;;;;;;
63316;SPS30;49822;41.468;13.560;2023-05-27T07:34:19;7.90;;4.28;;;;;;;
63316;SPS30;49822;41.468;13.560;2023-05-27T07:36:47;10.45;;4.38;;;;;;;
63316;SPS30;49822;41.468;13.560;2023-05-27T07:39:13;9.23;;4.32;;;;;;;
63316;SPS30;49822;41.468;13.560;2023-05-27T07:41:40;8.55;;4.38;;;;;;;
63316;SPS30;49822;41.468;13.560;2023-05-27T07:44:06;8.45;;3.97;;;;;;;
63316;SPS30;49822;41.468;13.560;2023-05-27T07:46:32;7.88;;3.55;;;;;;;
63316;SPS30;49822;41.468;13.560;2023-05-27T07:48:59;6.60;;3.80;;;;;;;
63316;SPS30;49822;41.468;13.560;2023-05-27T07:51:26;7.10;;3.45;;;;;;;
63316;SPS30;49822;41.468;13.560;2023-05-27T07:53:53;10.18;;3.58;;;;;;;
63316;SPS30;49822;41.468;13.560;2023-05-27T07:56:21;11.90;;3.95;;;;;;;
63316;SPS30;49822;41.468;13.560;2023-05-27T07:58:47;6.13;;3.50;;;;;;;
63316;SPS30;49822;41.468;13.560;2023-05-27T08:01:14;8.13;;3.97;;;;;;;
63316;SPS30;49822;41.468;13.560;2023-05-27T08:03:46;8.48;;4.30;;;;;;;
63316;SPS30;49822;41.468;13.560;2023-05-27T08:06:12;7.82;;4.55;;;;;;;
63316;SPS30;49822;41.468;13.560;2023-05-27T08:08:39;14.38;;4.78;;;;;;;
63316;SPS30;49822;41.468;13.560;2023-05-27T08:11:18;5.85;;3.53;;;;;;;
63316;SPS30;49822;41.468;13.560;2023-05-27T08:14:08;10.30;;4.00;;;;;;;
63316;SPS30;49822;41.468;13.560;2023-05-27T08:17:01;9.15;;3.38;;;;;;;
63316;SPS30;49822;41.468;13.560;2023-05-27T08:19:43;6.40;;3.58;;;;;;;
63316;SPS30;49822;41.468;13.560;2023-05-27T08:22:17;5.93;;3.33;;;;;;;
63316;SPS30;49822;41.468;13.560;2023-05-27T08:25:22;7.72;;3.35;;;;;;;
63316;SPS30;49822;41.468;13.560;2023-05-27T08:28:15;11.02;;3.28;;;;;;;
63316;SPS30;49822;41.468;13.560;2023-05-27T08:30:58;7.13;;3.35;;;;;;;
63316;SPS30;49822;41.468;13.560;2023-05-27T08:33:33;7.18;;3.70;;;;;;;
63316;SPS30;49822;41.468;13.560;2023-05-27T08:35:59;7.35;;3.22;;;;;;;
63316;SPS30;49822;41.468;13.560;2023-05-27T08:38:26;8.10;;3.30;;;;;;;
63316;SPS30;49822;41.468;13.560;2023-05-27T08:40:58;6.30;;3.28;;;;;;;
63316;SPS30;49822;41.468;13.560;2023-05-27T08:43:24;5.53;;3.30;;;;;;;
63316;SPS30;49822;41.468;13.560;2023-05-27T08:45:51;4.45;;2.85;;;;;;;
63316;SPS30;49822;41.468;13.560;2023-05-27T08:48:19;10.55;;3.35;;;;;;;
63316;SPS30;49822;41.468;13.560;2023-05-27T08:50:46;5.00;;2.75;;;;;;;
63316;SPS30;49822;41.468;13.560;2023-05-27T08:53:12;7.18;;3.25;;;;;;;
63316;SPS30;49822;41.468;13.560;2023-05-27T08:55:41;8.20;;3.00;;;;;;;
63316;SPS30;49822;41.468;13.560;2023-05-27T08:58:10;3.90;;2.70;;;;;;;
63316;SPS30;49822;41.468;13.560;2023-05-27T09:00:41;4.93;;2.70;;;;;;;
63316;SPS30;49822;41.468;13.560;2023-05-27T09:03:17;5.45;;2.85;;;;;;;
63316;SPS30;49822;41.468;13.560;2023-05-27T09:05:45;6.63;;2.50;;;;;;;
63316;SPS30;49822;41.468;13.560;2023-05-27T09:08:11;3.95;;2.60;;;;;;;
63316;SPS30;49822;41.468;13.560;2023-05-27T09:10:38;5.55;;2.53;;;;;;;
63316;SPS30;49822;41.468;13.560;2023-05-27T09:13:05;4.75;;3.03;;;;;;;
63316;SPS30;49822;41.468;13.560;2023-05-27T09:15:32;6.60;;2.67;;;;;;;
63316;SPS30;49822;41.468;13.560;2023-05-27T09:17:58;7.80;;3.00;;;;;;;
63316;SPS30;49822;41.468;13.560;2023-05-27T09:20:25;5.57;;2.67;;;;;;;
63316;SPS30;49822;41.468;13.560;2023-05-27T09:22:58;3.92;;2.72;;;;;;;
63316;SPS30;49822;41.468;13.560;2023-05-27T09:25:25;4.75;;2.45;;;;;;;
63316;SPS30;49822;41.468;13.560;2023-05-27T09:27:52;8.80;;2.35;;;;;;;
63316;SPS30;49822;41.468;13.560;2023-05-27T09:30:20;5.72;;2.83;;;;;;;
63316;SPS30;49822;41.468;13.560;2023-05-27T09:32:47;8.60;;2.80;;;;;;;
63316;SPS30;49822;41.468;13.560;2023-05-27T09:35:15;8.65;;5.35;;;;;;;
63316;SPS30;49822;41.468;13.560;2023-05-27T09:37:42;6.20;;2.97;;;;;;;
63316;SPS30;49822;41.468;13.560;2023-05-27T09:40:11;6.10;;2.70;;;;;;;
63316;SPS30;49822;41.468;13.560;2023-05-27T09:42:47;7.53;;2.80;;;;;;;
63316;SPS30;49822;41.468;13.560;2023-05-27T09:45:15;5.75;;2.67;;;;;;;
63316;SPS30;49822;41.468;13.560;2023-05-27T09:47:46;5.43;;2.63;;;;;;;
63316;SPS30;49822;41.468;13.560;2023-05-27T09:50:14;6.20;;2.50;;;;;;;
63316;SPS30;49822;41.468;13.560;2023-05-27T09:52:41;6.70;;2.70;;;;;;;
63316;SPS30;49822;41.468;13.560;2023-05-27T09:55:09;5.93;;3.47;;;;;;;
63316;SPS30;49822;41.468;13.560;2023-05-27T09:57:38;18.80;;9.95;;;;;;;
63316;SPS30;49822;41.468;13.560;2023-05-27T10:00:08;12.77;;6.60;;;;;;;
63316;SPS30;49822;41.468;13.560;2023-05-27T10:02:41;4.25;;3.00;;;;;;;
63316;SPS30;49822;41.468;13.560;2023-05-27T10:05:08;7.93;;2.97;;;;;;;
63316;SPS30;49822;41.468;13.560;2023-05-27T10:07:36;7.63;;3.95;;;;;;;
63316;SPS30;49822;41.468;13.560;2023-05-27T10:10:08;8.15;;3.08;;;;;;;
63316;SPS30;49822;41.468;13.560;2023-05-27T10:12:44;6.50;;3.38;;;;;;;
63316;SPS30;49822;41.468;13.560;2023-05-27T10:15:28;6.40;;3.25;;;;;;;
63316;SPS30;49822;41.468;13.560;2023-05-27T10:17:57;7.28;;3.65;;;;;;;
63316;SPS30;49822;41.468;13.560;2023-05-27T10:23:19;8.77;;3.67;;;;;;;
63316;SPS30;49822;41.468;13.560;2023-05-27T10:28:29;6.70;;2.85;;;;;;;
63316;SPS30;49822;41.468;13.560;2023-05-27T10:31:09;4.80;;2.75;;;;;;;
63316;SPS30;49822;41.468;13.560;2023-05-27T10:33:46;6.03;;3.03;;;;;;;
63316;SPS30;49822;41.468;13.560;2023-05-27T10:36:15;8.30;;3.15;;;;;;;
63316;SPS30;49822;41.468;13.560;2023-05-27T10:38:43;9.73;;4.63;;;;;;;
63316;SPS30;49822;41.468;13.560;2023-05-27T10:41:22;5.68;;2.90;;;;;;;
63316;SPS30;49822;41.468;13.560;2023-05-27T10:43:58;5.15;;2.70;;;;;;;
63316;SPS30;49822;41.468;13.560;2023-05-27T10:46:24;5.63;;3.03;;;;;;;
63316;SPS30;49822;41.468;13.560;2023-05-27T10:48:51;5.00;;2.50;;;;;;;
63316;SPS30;49822;41.468;13.560;2023-05-27T10:51:17;9.85;;2.90;;;;;;;
63316;SPS30;49822;41.468;13.560;2023-05-27T10:53:43;4.63;;2.72;;;;;;;
63316;SPS30;49822;41.468;13.560;2023-05-27T10:56:11;3.47;;2.15;;;;;;;
63316;SPS30;49822;41.468;13.560;2023-05-27T10:58:37;4.53;;2.60;;;;;;;
63316;SPS30;49822;41.468;13.560;2023-05-27T11:01:11;9.75;;3.10;;;;;;;
63316;SPS30;49822;41.468;13.560;2023-05-27T11:03:45;6.97;;2.80;;;;;;;
63316;SPS30;49822;41.468;13.560;2023-05-27T11:06:15;4.68;;2.80;;;;;;;
63316;SPS30;49822;41.468;13.560;2023-05-27T11:08:44;6.07;;2.42;;;;;;;
63316;SPS30;49822;41.468;13.560;2023-05-27T11:11:10;5.43;;2.83;;;;;;;
63316;SPS30;49822;41.468;13.560;2023-05-27T11:13:42;5.85;;2.58;;;;;;;
63316;SPS30;49822;41.468;13.560;2023-05-27T11:16:11;7.57;;2.50;;;;;;;
63316;SPS30;49822;41.468;13.560;2023-05-27T11:18:41;8.32;;2.72;;;;;;;
63316;SPS30;49822;41.468;13.560;2023-05-27T11:21:08;3.25;;2.50;;;;;;;
63316;SPS30;49822;41.468;13.560;2023-05-27T11:29:15;5.82;;2.55;;;;;;;
63316;SPS30;49822;41.468;13.560;2023-05-27T11:31:34;4.63;;2.25;;;;;;;
63316;SPS30;49822;41.468;13.560;2023-05-27T11:34:01;3.08;;2.15;;;;;;;
63316;SPS30;49822;41.468;13.560;2023-05-27T11:36:28;6.50;;2.55;;;;;;;
63316;SPS30;49822;41.468;13.560;2023-05-27T11:38:59;4.60;;2.67;;;;;;;
63316;SPS30;49822;41.468;13.560;2023-05-27T11:41:27;2.97;;2.08;;;;;;;
63316;SPS30;49822;41.468;13.560;2023-05-27T11:44:01;5.18;;2.70;;;;;;;
63316;SPS30;49822;41.468;13.560;2023-05-27T11:46:40;4.18;;2.38;;;;;;;
63316;SPS30;49822;41.468;13.560;2023-05-27T11:49:09;5.85;;2.40;;;;;;;
63316;SPS30;49822;41.468;13.560;2023-05-27T11:51:37;4.88;;3.33;;;;;;;
63316;SPS30;49822;41.468;13.560;2023-05-27T11:54:04;5.05;;2.53;;;;;;;
63316;SPS30;49822;41.468;13.560;2023-05-27T11:56:31;7.00;;2.40;;;;;;;
63316;SPS30;49822;41.468;13.560;2023-05-27T11:58:58;4.38;;2.20;;;;;;;
63316;SPS30;49822;41.468;13.560;2023-05-27T12:01:24;3.83;;2.20;;;;;;;
63316;SPS30;49822;41.468;13.560;2023-05-27T12:03:51;5.63;;2.30;;;;;;;
63316;SPS30;49822;41.468;13.560;2023-05-27T12:06:17;6.65;;2.38;;;;;;;
63316;SPS30;49822;41.468;13.560;2023-05-27T12:08:44;4.03;;2.35;;;;;;;
63316;SPS30;49822;41.468;13.560;2023-05-27T12:11:10;4.07;;2.22;;;;;;;
63316;SPS30;49822;41.468;13.560;2023-05-27T12:13:36;6.95;;2.33;;;;;;;
63316;SPS30;49822;41.468;13.560;2023-05-27T12:16:02;3.85;;2.55;;;;;;;
63316;SPS30;49822;41.468;13.560;2023-05-27T12:18:28;3.67;;2.10;;;;;;;
63316;SPS30;49822;41.468;13.560;2023-05-27T12:20:57;6.85;;2.60;;;;;;;
63316;SPS30;49822;41.468;13.560;2023-05-27T12:23:23;2.97;;1.98;;;;;;;
63316;SPS30;49822;41.468;13.560;2023-05-27T12:25:50;4.43;;2.40;;;;;;;
63316;SPS30;49822;41.468;13.560;2023-05-27T12:28:16;4.25;;2.25;;;;;;;
63316;SPS30;49822;41.468;13.560;2023-05-27T12:30:42;4.00;;2.25;;;;;;;
63316;SPS30;49822;41.468;13.560;2023-05-27T12:33:10;2.95;;1.88;;;;;;;
63316;SPS30;49822;41.468;13.560;2023-05-27T12:35:36;4.22;;2.03;;;;;;;
63316;SPS30;49822;41.468;13.560;2023-05-27T12:38:02;3.35;;1.92;;;;;;;
63316;SPS30;49822;41.468;13.560;2023-05-27T12:40:28;3.53;;2.08;;;;;;;
63316;SPS30;49822;41.468;13.560;2023-05-27T12:42:54;4.70;;2.47;;;;;;;
63316;SPS30;49822;41.468;13.560;2023-05-27T12:45:21;7.03;;2.63;;;;;;;
63316;SPS30;49822;41.468;13.560;2023-05-27T12:47:51;3.55;;2.22;;;;;;;
63316;SPS30;49822;41.468;13.560;2023-05-27T12:50:18;4.30;;2.20;;;;;;;
63316;SPS30;49822;41.468;13.560;2023-05-27T12:52:44;4.00;;2.55;;;;;;;
63316;SPS30;49822;41.468;13.560;2023-05-27T12:55:13;8.90;;2.80;;;;;;;
63316;SPS30;49822;41.468;13.560;2023-05-27T12:57:39;3.75;;2.22;;;;;;;
63316;SPS30;49822;41.468;13.560;2023-05-27T13:00:06;8.00;;2.65;;;;;;;
63316;SPS30;49822;41.468;13.560;2023-05-27T13:02:32;7.15;;3.40;;;;;;;
63316;SPS30;49822;41.468;13.560;2023-05-27T13:04:59;5.05;;2.83;;;;;;;
63316;SPS30;49822;41.468;13.560;2023-05-27T13:07:26;6.85;;3.20;;;;;;;
63316;SPS30;49822;41.468;13.560;2023-05-27T13:09:52;5.65;;2.70;;;;;;;
63316;SPS30;49822;41.468;13.560;2023-05-27T13:12:18;4.97;;2.60;;;;;;;
63316;SPS30;49822;41.468;13.560;2023-05-27T13:14:44;5.55;;2.53;;;;;;;
63316;SPS30;49822;41.468;13.560;2023-05-27T13:17:13;5.07;;2.90;;;;;;;
63316;SPS30;49822;41.468;13.560;2023-05-27T13:19:39;4.78;;2.30;;;;;;;
63316;SPS30;49822;41.468;13.560;2023-05-27T13:22:05;4.13;;2.63;;;;;;;
63316;SPS30;49822;41.468;13.560;2023-05-27T13:24:31;4.55;;2.42;;;;;;;
63316;SPS30;49822;41.468;13.560;2023-05-27T13:26:57;6.47;;3.10;;;;;;;
63316;SPS30;49822;41.468;13.560;2023-05-27T13:29:23;5.32;;2.70;;;;;;;
63316;SPS30;49822;41.468;13.560;2023-05-27T13:31:49;5.95;;2.65;;;;;;;
63316;SPS30;49822;41.468;13.560;2023-05-27T13:34:15;5.00;;2.85;;;;;;;
63316;SPS30;49822;41.468;13.560;2023-05-27T13:36:42;4.25;;2.63;;;;;;;
63316;SPS30;49822;41.468;13.560;2023-05-27T13:39:08;5.72;;3.15;;;;;;;
63316;SPS30;49822;41.468;13.560;2023-05-27T13:41:34;6.88;;2.85;;;;;;;
63316;SPS30;49822;41.468;13.560;2023-05-27T13:44:00;6.47;;2.20;;;;;;;
63316;SPS30;49822;41.468;13.560;2023-05-27T13:46:26;8.57;;3.42;;;;;;;
63316;SPS30;49822;41.468;13.560;2023-05-27T13:48:52;8.55;;2.80;;;;;;;
63316;SPS30;49822;41.468;13.560;2023-05-27T13:51:19;4.22;;2.60;;;;;;;
63316;SPS30;49822;41.468;13.560;2023-05-27T13:53:45;5.22;;2.78;;;;;;;
63316;SPS30;49822;41.468;13.560;2023-05-27T13:56:11;5.20;;2.67;;;;;;;
63316;SPS30;49822;41.468;13.560;2023-05-27T13:58:38;7.40;;2.80;;;;;;;
63316;SPS30;49822;41.468;13.560;2023-05-27T14:01:04;12.68;;3.33;;;;;;;
63316;SPS30;49822;41.468;13.560;2023-05-27T14:03:30;9.73;;3.10;;;;;;;
63316;SPS30;49822;41.468;13.560;2023-05-27T14:05:55;8.77;;2.80;;;;;;;
63316;SPS30;49822;41.468;13.560;2023-05-27T14:08:21;4.75;;2.90;;;;;;;
63316;SPS30;49822;41.468;13.560;2023-05-27T14:10:47;6.10;;3.38;;;;;;;
63316;SPS30;49822;41.468;13.560;2023-05-27T14:13:14;8.18;;3.15;;;;;;;
63316;SPS30;49822;41.468;13.560;2023-05-27T14:15:40;5.40;;3.05;;;;;;;
63316;SPS30;49822;41.468;13.560;2023-05-27T14:18:07;8.35;;3.25;;;;;;;
63316;SPS30;49822;41.468;13.560;2023-05-27T14:20:33;8.88;;3.10;;;;;;;
63316;SPS30;49822;41.468;13.560;2023-05-27T14:22:59;5.85;;2.95;;;;;;;